createdAt,value
2022-08-10T00:00:17.262Z,1.04
2022-08-10T00:01:17.397Z,1.04
2022-08-10T00:02:17.458Z,1.04
2022-08-10T00:03:17.563Z,1.04
2022-08-10T00:04:19.312Z,1.04
2022-08-10T00:05:17.813Z,1.04
2022-08-10T00:06:17.919Z,1.04
2022-08-10T00:07:18.019Z,1.04
2022-08-10T00:08:22.570Z,1.04
2022-08-10T00:09:18.277Z,1.04
2022-08-10T00:10:18.422Z,1.04
2022-08-10T00:11:18.525Z,1.04
2022-08-10T00:12:18.626Z,1.04
2022-08-10T00:13:18.727Z,1.04
2022-08-10T00:14:18.865Z,1.04
2022-08-10T00:15:44.438Z,1.04
2022-08-10T00:16:19.150Z,1.04
2022-08-10T00:17:19.294Z,1.04
2022-08-10T00:18:31.375Z,1.04
2022-08-10T00:19:19.545Z,1.04
2022-08-10T00:20:19.690Z,1.04
2022-08-10T00:21:19.798Z,1.04
2022-08-10T00:22:19.907Z,1.04
2022-08-10T00:23:20.054Z,1.04
2022-08-10T00:24:20.151Z,1.04
2022-08-10T00:25:20.252Z,1.04
2022-08-10T00:26:20.356Z,1.04
2022-08-10T00:27:50.209Z,1.04
2022-08-10T00:28:20.613Z,1.04
2022-08-10T00:29:20.725Z,1.04
2022-08-10T00:30:20.824Z,1.04
2022-08-10T00:31:20.964Z,1.04
2022-08-10T00:32:21.117Z,1.04
2022-08-10T00:33:21.228Z,1.04
2022-08-10T00:34:21.320Z,1.04
2022-08-10T00:35:21.429Z,1.04
2022-08-10T00:36:21.531Z,1.04
2022-08-10T00:37:21.678Z,1.04
2022-08-10T00:38:21.782Z,1.04
2022-08-10T00:39:21.978Z,1.04
2022-08-10T00:40:35.146Z,1.04
2022-08-10T00:41:22.182Z,1.04
2022-08-10T00:42:22.339Z,1.04
2022-08-10T00:43:23.225Z,1.04
2022-08-10T00:44:22.541Z,1.04
2022-08-10T00:45:22.690Z,1.04
2022-08-10T00:46:22.794Z,1.04
2022-08-10T00:47:36.541Z,1.04
2022-08-10T00:48:23.064Z,1.04
2022-08-10T00:49:23.203Z,1.04
2022-08-10T00:50:23.310Z,1.04
2022-08-10T00:51:23.453Z,1.04
2022-08-10T00:52:23.607Z,1.04
2022-08-10T00:53:23.715Z,1.04
2022-08-10T00:54:25.059Z,1.04
2022-08-10T00:55:23.938Z,1.04
2022-08-10T00:56:35.549Z,1.04
2022-08-10T00:57:24.231Z,1.04
2022-08-10T00:58:24.318Z,1.04
2022-08-10T00:59:24.455Z,1.04
2022-08-10T01:00:24.581Z,1.04
2022-08-10T01:02:10.398Z,1.04
2022-08-10T01:02:24.899Z,1.04
2022-08-10T01:04:36.097Z,1.04
2022-08-10T01:05:25.229Z,1.04
2022-08-10T01:06:25.332Z,1.04
2022-08-10T01:07:25.487Z,1.04
2022-08-10T01:08:25.639Z,1.04
2022-08-10T01:09:25.739Z,1.04
2022-08-10T01:10:25.840Z,1.04
2022-08-10T01:12:27.826Z,1.04
2022-08-10T01:13:26.196Z,1.04
2022-08-10T01:14:26.298Z,1.04
2022-08-10T01:15:26.407Z,1.04
2022-08-10T01:16:26.509Z,1.04
2022-08-10T01:17:49.600Z,1.04
2022-08-10T01:18:26.708Z,1.04
2022-08-10T01:19:26.867Z,1.04
2022-08-10T01:20:30.403Z,1.04
2022-08-10T01:21:27.109Z,1.04
2022-08-10T01:22:27.235Z,1.04
2022-08-10T01:23:27.322Z,1.04
2022-08-10T01:24:27.419Z,1.04
2022-08-10T01:25:27.569Z,1.04
2022-08-10T01:26:30.905Z,1.04
2022-08-10T01:27:27.825Z,1.04
2022-08-10T01:28:27.928Z,1.04
2022-08-10T01:29:28.033Z,1.04
2022-08-10T01:30:28.191Z,1.04
2022-08-10T01:31:28.282Z,1.04
2022-08-10T01:32:28.383Z,1.04
2022-08-10T01:33:31.700Z,1.04
2022-08-10T01:34:28.587Z,1.04
2022-08-10T01:35:28.695Z,1.04
2022-08-10T01:36:32.103Z,1.04
2022-08-10T01:37:28.994Z,1.04
2022-08-10T01:38:29.096Z,1.04
2022-08-10T01:39:29.262Z,1.04
2022-08-10T01:40:29.351Z,1.04
2022-08-10T01:41:29.454Z,1.04
2022-08-10T01:42:29.565Z,1.04
2022-08-10T01:43:29.703Z,1.04
2022-08-10T01:44:29.805Z,1.04
2022-08-10T01:45:29.956Z,1.04
2022-08-10T01:46:30.066Z,1.04
2022-08-10T01:47:30.164Z,1.04
2022-08-10T01:48:30.315Z,1.04
2022-08-10T01:49:30.421Z,1.04
2022-08-10T01:50:30.573Z,1.04
2022-08-10T01:51:30.677Z,1.04
2022-08-10T01:52:30.774Z,1.04
2022-08-10T01:53:39.943Z,1.04
2022-08-10T01:54:30.975Z,1.04
2022-08-10T01:55:31.078Z,1.04
2022-08-10T01:56:31.179Z,1.04
2022-08-10T01:57:31.283Z,1.04
2022-08-10T01:58:31.384Z,1.04
2022-08-10T01:59:31.540Z,1.04
2022-08-10T02:00:31.689Z,1.04
2022-08-10T02:01:31.894Z,1.04
2022-08-10T02:02:31.969Z,1.04
2022-08-10T02:03:32.052Z,1.04
2022-08-10T02:04:32.196Z,1.04
2022-08-10T02:05:32.355Z,1.04
2022-08-10T02:06:32.454Z,1.04
2022-08-10T02:07:32.605Z,1.04
2022-08-10T02:08:32.758Z,1.04
2022-08-10T02:09:32.912Z,1.04
2022-08-10T02:10:33.058Z,1.04
2022-08-10T02:11:56.152Z,1.04
2022-08-10T02:12:33.544Z,1.04
2022-08-10T02:13:33.415Z,1.04
2022-08-10T02:14:34.211Z,1.04
2022-08-10T02:15:33.668Z,1.04
2022-08-10T02:16:33.821Z,1.04
2022-08-10T02:17:58.791Z,1.04
2022-08-10T02:18:34.075Z,1.04
2022-08-10T02:19:34.184Z,1.04
2022-08-10T02:20:34.279Z,1.04
2022-08-10T02:21:34.432Z,1.04
2022-08-10T02:22:38.500Z,1.04
2022-08-10T02:23:34.735Z,1.04
2022-08-10T02:24:34.834Z,1.04
2022-08-10T02:25:40.485Z,1.04
2022-08-10T02:26:35.094Z,1.04
2022-08-10T02:27:35.191Z,1.04
2022-08-10T02:28:35.294Z,1.04
2022-08-10T02:29:35.448Z,1.04
2022-08-10T02:30:35.624Z,1.04
2022-08-10T02:31:35.751Z,1.04
2022-08-10T02:32:38.011Z,1.04
2022-08-10T02:33:37.148Z,1.04
2022-08-10T02:34:36.206Z,1.04
2022-08-10T02:35:39.332Z,1.04
2022-08-10T02:36:36.407Z,1.04
2022-08-10T02:37:36.509Z,1.04
2022-08-10T02:38:57.785Z,1.04
2022-08-10T02:39:36.858Z,1.04
2022-08-10T02:42:19.121Z,1.04
2022-08-10T02:45:37.971Z,1.04
2022-08-10T02:46:37.629Z,1.04
2022-08-10T02:47:46.833Z,1.04
2022-08-10T02:48:37.883Z,1.04
2022-08-10T02:49:37.990Z,1.04
2022-08-10T02:50:38.132Z,1.04
2022-08-10T02:52:06.089Z,1.04
2022-08-10T02:52:38.391Z,1.04
2022-08-10T02:53:51.687Z,1.04
2022-08-10T02:54:38.642Z,1.04
2022-08-10T02:55:38.742Z,1.04
2022-08-10T02:56:38.898Z,1.04
2022-08-10T02:58:12.795Z,1.04
2022-08-10T02:58:39.102Z,1.04
2022-08-10T02:59:40.223Z,1.04
2022-08-10T03:00:39.458Z,1.04
2022-08-10T03:01:39.586Z,1.04
2022-08-10T03:02:39.612Z,1.04
2022-08-10T03:03:39.718Z,2
2022-08-10T03:04:54.216Z,2
2022-08-10T03:05:39.965Z,2
2022-08-10T03:06:40.067Z,2
2022-08-10T03:07:42.751Z,2
2022-08-10T03:08:40.382Z,3.04
2022-08-10T03:09:40.475Z,3.04
2022-08-10T03:10:40.628Z,3.04
2022-08-10T03:12:16.694Z,4
2022-08-10T03:12:40.887Z,4
2022-08-10T03:13:40.982Z,5.04
2022-08-10T03:14:41.106Z,5.04
2022-08-10T03:15:41.237Z,6
2022-08-10T03:16:41.339Z,7.04
2022-08-10T03:17:41.437Z,8
2022-08-10T03:18:41.542Z,10
2022-08-10T03:20:04.236Z,11.04
2022-08-10T03:20:41.864Z,13.04
2022-08-10T03:21:41.947Z,15.04
2022-08-10T03:22:42.123Z,18
2022-08-10T03:23:42.153Z,21.04
2022-08-10T03:24:42.252Z,24
2022-08-10T03:25:53.980Z,28
2022-08-10T03:26:42.516Z,33.04
2022-08-10T03:27:42.660Z,38
2022-08-10T03:28:42.810Z,44
2022-08-10T03:30:25.731Z,52
2022-08-10T03:30:43.063Z,58
2022-08-10T03:31:43.216Z,66
2022-08-10T03:32:43.370Z,76
2022-08-10T03:33:43.471Z,87.04
2022-08-10T03:34:43.573Z,82
2022-08-10T03:35:43.675Z,93.04
2022-08-10T03:36:44.986Z,105.04
2022-08-10T03:37:43.928Z,118
2022-08-10T03:38:44.088Z,132
2022-08-10T03:39:44.245Z,147.04
2022-08-10T03:40:44.674Z,163.04
2022-08-10T03:41:47.678Z,181.12
2022-08-10T03:42:44.611Z,200
2022-08-10T03:43:44.690Z,219.04
2022-08-10T03:44:48.619Z,240
2022-08-10T03:45:49.442Z,261.12
2022-08-10T03:46:45.045Z,282.08
2022-08-10T03:47:45.199Z,306.08
2022-08-10T03:48:49.534Z,330.24
2022-08-10T03:49:45.415Z,352
2022-08-10T03:50:51.695Z,373.12
2022-08-10T03:51:45.607Z,393.28
2022-08-10T03:52:45.759Z,415.04
2022-08-10T03:54:03.855Z,436.16
2022-08-10T03:54:46.060Z,461.12
2022-08-10T03:56:27.660Z,486.08
2022-08-10T03:56:46.316Z,509.12
2022-08-10T03:57:49.275Z,534.08
2022-08-10T03:58:46.521Z,561.28
2022-08-10T03:59:46.622Z,589.12
2022-08-10T04:00:46.802Z,618.24
2022-08-10T04:02:42.662Z,646.08
2022-08-10T04:03:47.132Z,687.36
2022-08-10T04:04:47.291Z,720
2022-08-10T04:05:47.331Z,766.08
2022-08-10T04:06:47.435Z,816
2022-08-10T04:07:47.583Z,869.12
2022-08-10T04:08:47.736Z,918.4
2022-08-10T04:09:53.777Z,970.24
2022-08-10T04:10:47.989Z,1003.52
2022-08-10T04:11:48.142Z,1019.52
2022-08-10T04:12:48.245Z,1015.04
2022-08-10T04:13:48.347Z,1038.08
2022-08-10T04:14:50.315Z,1086.08
2022-08-10T04:15:48.599Z,1157.12
2022-08-10T04:16:48.754Z,1229.44
2022-08-10T04:17:57.382Z,1293.44
2022-08-10T04:18:49.011Z,1436.16
2022-08-10T04:19:49.108Z,1504
2022-08-10T04:20:49.263Z,1574.4
2022-08-10T04:21:49.410Z,1657.6
2022-08-10T04:22:49.514Z,1742.08
2022-08-10T04:23:52.627Z,1838.08
2022-08-10T04:24:49.719Z,1952
2022-08-10T04:25:49.819Z,2067.2
2022-08-10T04:26:49.920Z,2204.16
2022-08-10T04:27:50.033Z,2343.68
2022-08-10T04:28:50.176Z,2457.6
2022-08-10T04:29:50.277Z,2560
2022-08-10T04:30:50.385Z,2631.68
2022-08-10T04:31:50.532Z,2693.12
2022-08-10T04:32:50.636Z,2736.64
2022-08-10T04:33:50.733Z,2780.16
2022-08-10T04:34:50.843Z,2798.08
2022-08-10T04:35:50.941Z,2810.88
2022-08-10T04:36:51.099Z,2813.44
2022-08-10T04:37:51.254Z,2800.64
2022-08-10T04:38:51.345Z,2775.04
2022-08-10T04:39:51.501Z,2762.24
2022-08-10T04:40:51.549Z,2828.8
2022-08-10T04:41:51.655Z,2923.52
2022-08-10T04:42:51.760Z,2956.8
2022-08-10T04:43:51.912Z,2895.36
2022-08-10T04:44:52.059Z,2818.56
2022-08-10T04:45:52.159Z,2841.6
2022-08-10T04:46:55.585Z,3110.4
2022-08-10T04:47:58.004Z,3266.56
2022-08-10T04:48:59.817Z,3223.04
2022-08-10T04:49:55.763Z,3105.28
2022-08-10T04:50:52.826Z,3092.48
2022-08-10T04:51:52.922Z,3156.48
2022-08-10T04:52:53.024Z,3159.04
2022-08-10T04:54:03.660Z,3176.96
2022-08-10T04:54:53.324Z,3210.24
2022-08-10T04:55:53.480Z,3253.76
2022-08-10T04:56:53.578Z,3299.84
2022-08-10T04:57:53.685Z,3345.92
2022-08-10T04:58:53.782Z,3417.6
2022-08-10T04:59:53.886Z,3819.52
2022-08-10T05:00:54.099Z,4495.36
2022-08-10T05:02:12.600Z,4912.64
2022-08-10T05:02:54.346Z,4546.56
2022-08-10T05:04:33.075Z,5355.52
2022-08-10T05:04:54.594Z,5785.6
2022-08-10T05:05:54.697Z,6005.76
2022-08-10T05:06:54.806Z,6138.88
2022-08-10T05:07:56.824Z,6333.44
2022-08-10T05:08:55.054Z,6476.8
2022-08-10T05:10:00.617Z,5811.2
2022-08-10T05:10:55.364Z,4224
2022-08-10T05:11:55.460Z,6691.84
2022-08-10T05:12:55.612Z,6865.92
2022-08-10T05:13:55.766Z,6988.8
2022-08-10T05:14:55.867Z,7111.68
2022-08-10T05:15:55.972Z,7214.08
2022-08-10T05:16:56.117Z,7388.16
2022-08-10T05:18:08.384Z,7475.2
2022-08-10T05:18:56.423Z,7521.28
2022-08-10T05:20:02.563Z,7618.56
2022-08-10T05:20:56.679Z,7761.92
2022-08-10T05:22:04.038Z,7936
2022-08-10T05:22:56.982Z,8079.36
2022-08-10T05:23:57.130Z,8232.96
2022-08-10T05:24:57.255Z,8371.2
2022-08-10T05:25:57.335Z,8524.8
2022-08-10T05:27:00.731Z,8632.319
2022-08-10T05:27:57.796Z,8709.12
2022-08-10T05:28:57.694Z,8780.8
2022-08-10T05:30:01.918Z,8857.6
2022-08-10T05:30:58.003Z,8939.52
2022-08-10T05:31:58.153Z,8980.479
2022-08-10T05:33:00.917Z,8970.24
2022-08-10T05:33:58.404Z,8929.28
2022-08-10T05:34:58.530Z,8903.68
2022-08-10T05:35:58.653Z,8832
2022-08-10T05:36:58.760Z,8785.92
2022-08-10T05:38:11.053Z,8704
2022-08-10T05:38:59.013Z,8637.439
2022-08-10T05:39:59.146Z,8663.04
2022-08-10T05:40:59.271Z,8606.72
2022-08-10T05:42:01.036Z,8509.439
2022-08-10T05:42:59.469Z,8468.479
2022-08-10T05:43:59.574Z,8432.64
2022-08-10T05:44:59.694Z,8412.16
2022-08-10T05:46:16.494Z,8463.359
2022-08-10T05:46:59.928Z,8499.2
2022-08-10T05:48:41.162Z,8540.16
2022-08-10T05:49:01.681Z,8540.16
2022-08-10T05:50:00.287Z,8483.84
2022-08-10T05:51:00.467Z,8453.12
2022-08-10T05:52:00.539Z,8478.72
2022-08-10T05:53:05.790Z,8504.319
2022-08-10T05:54:05.357Z,8529.92
2022-08-10T05:55:02.826Z,8509.439
2022-08-10T05:56:00.945Z,8499.2
2022-08-10T05:57:01.099Z,8488.96
2022-08-10T05:58:01.197Z,8463.359
2022-08-10T05:59:01.379Z,8427.52
2022-08-10T06:00:09.422Z,8396.8
2022-08-10T06:01:01.688Z,8330.24
2022-08-10T06:02:30.483Z,8268.8
2022-08-10T06:03:01.814Z,7869.44
2022-08-10T06:04:01.913Z,8212.48
2022-08-10T06:05:02.014Z,8248.32
2022-08-10T06:06:02.165Z,8253.44
2022-08-10T06:07:02.264Z,8268.8
2022-08-10T06:08:02.368Z,8268.8
2022-08-10T06:09:02.476Z,8268.8
2022-08-10T06:10:02.625Z,8279.04
2022-08-10T06:12:24.763Z,8273.92
2022-08-10T06:13:03.402Z,8263.68
2022-08-10T06:14:13.530Z,8268.8
2022-08-10T06:15:05.092Z,8273.92
2022-08-10T06:16:03.386Z,8268.8
2022-08-10T06:17:03.481Z,8258.56
2022-08-10T06:18:03.636Z,8284.16
2022-08-10T06:19:03.737Z,8284.16
2022-08-10T06:20:03.919Z,8309.76
2022-08-10T06:21:03.998Z,8345.6
2022-08-10T06:22:04.101Z,8355.84
2022-08-10T06:23:04.253Z,8381.44
2022-08-10T06:24:04.431Z,8391.68
2022-08-10T06:25:38.031Z,8437.76
2022-08-10T06:27:04.661Z,8540.16
2022-08-10T06:28:04.754Z,8581.12
2022-08-10T06:29:04.863Z,8606.72
2022-08-10T06:30:04.960Z,8606.72
2022-08-10T06:31:05.101Z,8601.6
2022-08-10T06:32:05.213Z,8596.479
2022-08-10T06:33:05.364Z,8622.08
2022-08-10T06:34:05.468Z,8642.56
2022-08-10T06:35:05.621Z,8683.52
2022-08-10T06:36:05.723Z,8719.359
2022-08-10T06:37:05.874Z,8729.6
2022-08-10T06:38:05.974Z,8750.08
2022-08-10T06:39:23.219Z,8765.439
2022-08-10T06:40:06.297Z,8791.04
2022-08-10T06:41:06.382Z,8821.76
2022-08-10T06:42:15.690Z,8837.12
2022-08-10T06:43:06.638Z,8883.2
2022-08-10T06:44:06.747Z,8934.399
2022-08-10T06:45:06.892Z,8985.6
2022-08-10T06:46:08.555Z,9006.08
2022-08-10T06:47:07.148Z,9041.92
2022-08-10T06:48:07.297Z,9072.64
2022-08-10T06:49:07.398Z,9113.6
2022-08-10T06:50:08.744Z,9154.56
2022-08-10T06:51:07.654Z,9200.64
2022-08-10T06:52:07.802Z,9251.84
2022-08-10T06:53:07.955Z,9287.68
2022-08-10T06:54:08.179Z,9277.439
2022-08-10T06:55:08.519Z,9308.16
2022-08-10T06:56:08.385Z,9344
2022-08-10T06:57:17.555Z,9374.72
2022-08-10T06:58:08.624Z,9384.96
2022-08-10T06:59:08.715Z,9420.8
2022-08-10T07:00:08.875Z,9436.16
2022-08-10T07:01:09.035Z,9466.88
2022-08-10T07:02:09.078Z,9487.359
2022-08-10T07:03:09.174Z,9512.96
2022-08-10T07:04:09.283Z,9523.2
2022-08-10T07:05:09.384Z,9538.56
2022-08-10T07:06:09.486Z,9533.439
2022-08-10T07:07:09.639Z,9564.16
2022-08-10T07:08:09.731Z,9584.64
2022-08-10T07:09:09.887Z,9610.24
2022-08-10T07:10:10.038Z,9640.96
2022-08-10T07:11:11.933Z,9676.8
2022-08-10T07:12:10.240Z,9712.64
2022-08-10T07:13:10.342Z,9717.76
2022-08-10T07:14:15.142Z,9758.72
2022-08-10T07:15:10.541Z,9804.8
2022-08-10T07:16:10.646Z,9830.399
2022-08-10T07:17:15.487Z,9866.24
2022-08-10T07:18:10.902Z,9902.08
2022-08-10T07:19:11.063Z,9896.96
2022-08-10T07:20:11.205Z,9973.76
2022-08-10T07:21:11.307Z,10024.96
2022-08-10T07:22:11.461Z,10065.92
2022-08-10T07:24:11.719Z,10158.08
2022-08-10T07:25:11.875Z,10204.16
2022-08-10T07:26:12.021Z,10260.479
2022-08-10T07:27:12.127Z,10306.56
2022-08-10T07:28:12.271Z,10378.24
2022-08-10T07:29:24.682Z,10424.319
2022-08-10T07:30:12.557Z,10465.279
2022-08-10T07:31:29.684Z,10526.72
2022-08-10T07:32:12.779Z,10557.439
2022-08-10T07:33:12.885Z,10588.16
2022-08-10T07:34:12.984Z,10639.359
2022-08-10T07:35:13.086Z,10659.84
2022-08-10T07:36:13.237Z,10731.52
2022-08-10T07:37:13.389Z,10803.2
2022-08-10T07:38:13.540Z,10833.92
2022-08-10T07:39:13.666Z,10895.359
2022-08-10T07:40:13.853Z,10977.279
2022-08-10T07:41:13.953Z,10997.76
2022-08-10T07:42:14.102Z,11059.2
2022-08-10T07:43:14.255Z,11120.64
2022-08-10T07:44:14.359Z,11182.08
2022-08-10T07:45:14.505Z,11212.8
2022-08-10T07:46:14.615Z,11304.96
2022-08-10T07:47:14.713Z,11335.68
2022-08-10T07:48:14.862Z,11376.64
2022-08-10T07:49:17.027Z,11448.319
2022-08-10T07:50:15.116Z,11530.239
2022-08-10T07:51:15.264Z,11284.479
2022-08-10T07:52:15.370Z,11694.08
2022-08-10T07:53:15.472Z,11776
2022-08-10T07:54:15.572Z,11847.68
2022-08-10T07:55:15.724Z,11888.64
2022-08-10T07:56:32.141Z,11929.6
2022-08-10T07:57:28.798Z,11980.8
2022-08-10T07:58:16.031Z,12062.72
2022-08-10T07:59:16.133Z,12103.68
2022-08-10T08:00:16.233Z,12165.12
2022-08-10T08:01:16.640Z,12236.8
2022-08-10T08:02:16.539Z,12318.72
2022-08-10T08:03:16.638Z,12328.96
2022-08-10T08:04:16.803Z,12431.359
2022-08-10T08:05:27.711Z,12544
2022-08-10T08:06:17.122Z,12646.399
2022-08-10T08:07:20.834Z,12718.08
2022-08-10T08:08:17.252Z,12636.16
2022-08-10T08:09:17.406Z,12636.16
2022-08-10T08:10:17.561Z,12861.439
2022-08-10T08:11:25.883Z,12963.84
2022-08-10T08:12:17.858Z,14100.479
2022-08-10T08:13:17.959Z,14407.68
2022-08-10T08:14:18.112Z,14786.56
2022-08-10T08:16:21.046Z,15329.279
2022-08-10T08:17:18.517Z,16199.68
2022-08-10T08:18:23.050Z,16670.72
2022-08-10T08:19:27.179Z,16363.52
2022-08-10T08:20:18.972Z,17008.64
2022-08-10T08:24:02.934Z,17694.72
2022-08-10T08:24:32.106Z,18472.96
2022-08-10T08:25:19.582Z,18974.72
2022-08-10T08:26:19.773Z,19322.88
2022-08-10T08:27:19.838Z,19681.28
2022-08-10T08:28:19.939Z,19968
2022-08-10T08:29:20.037Z,20080.64
2022-08-10T08:30:26.878Z,20254.72
2022-08-10T08:31:20.242Z,20541.44
2022-08-10T08:32:20.396Z,21094.4
2022-08-10T08:33:41.447Z,21463.04
2022-08-10T08:34:20.648Z,21667.84
2022-08-10T08:35:20.753Z,21708.8
2022-08-10T08:36:20.856Z,21647.36
2022-08-10T08:38:29.344Z,21360.64
2022-08-10T08:39:21.187Z,9021.439
2022-08-10T08:40:21.262Z,9958.399
2022-08-10T08:41:21.418Z,19630.08
2022-08-10T08:42:21.539Z,22855.68
2022-08-10T08:43:21.774Z,23449.6
2022-08-10T08:44:21.821Z,23674.88
2022-08-10T08:45:21.932Z,24719.36
2022-08-10T08:46:22.021Z,17520.64
2022-08-10T08:48:03.495Z,25354.24
2022-08-10T08:48:22.277Z,26112
2022-08-10T08:49:41.617Z,25948.16
2022-08-10T08:50:22.485Z,26439.68
2022-08-10T08:52:06.484Z,26787.84
2022-08-10T08:52:22.788Z,27361.28
2022-08-10T08:53:22.977Z,28016.64
2022-08-10T08:54:23.015Z,29286.4
2022-08-10T08:55:50.257Z,30679.04
2022-08-10T08:56:23.241Z,30842.88
2022-08-10T08:57:46.386Z,31580.16
2022-08-10T08:58:23.446Z,31764.48
2022-08-10T08:59:23.608Z,32358.4
2022-08-10T09:00:23.751Z,32788.48
2022-08-10T09:01:23.919Z,33525.76
2022-08-10T09:02:24.053Z,34304
2022-08-10T09:03:28.024Z,15472.64
2022-08-10T09:04:24.260Z,14438.399
2022-08-10T09:05:24.366Z,13957.12
2022-08-10T09:06:24.545Z,13875.199
2022-08-10T09:07:39.657Z,32501.76
2022-08-10T09:08:24.721Z,33095.68
2022-08-10T09:09:24.891Z,33853.44
2022-08-10T09:10:25.020Z,17264.64
2022-08-10T09:11:25.123Z,24862.72
2022-08-10T09:12:25.279Z,22405.12
2022-08-10T09:13:25.428Z,17070.08
2022-08-10T09:14:26.031Z,15687.68
2022-08-10T09:15:39.391Z,15974.399
2022-08-10T09:16:25.738Z,15544.319
2022-08-10T09:17:25.833Z,13854.72
2022-08-10T09:18:25.937Z,13598.72
2022-08-10T09:19:34.831Z,13557.76
2022-08-10T09:20:26.239Z,13905.92
2022-08-10T09:21:26.349Z,14571.52
2022-08-10T09:22:26.442Z,15001.6
2022-08-10T09:24:01.342Z,15677.439
2022-08-10T09:24:26.733Z,16240.64
2022-08-10T09:25:26.801Z,17152
2022-08-10T09:26:26.900Z,18227.2
2022-08-10T09:27:27.053Z,19333.12
2022-08-10T09:28:27.249Z,20326.4
2022-08-10T09:29:27.261Z,21073.92
2022-08-10T09:30:29.617Z,21258.24
2022-08-10T09:31:27.513Z,21381.12
2022-08-10T09:33:05.302Z,21626.88
2022-08-10T09:36:32.738Z,22753.28
2022-08-10T09:37:39.535Z,23121.92
2022-08-10T09:38:28.322Z,23818.24
2022-08-10T09:40:06.173Z,25047.04
2022-08-10T09:41:28.712Z,29696
2022-08-10T09:42:28.831Z,32256
2022-08-10T09:43:28.982Z,29532.16
2022-08-10T09:44:29.084Z,29921.28
2022-08-10T09:45:29.262Z,29675.52
2022-08-10T09:46:29.395Z,29102.08
2022-08-10T09:47:58.787Z,27955.2
2022-08-10T09:48:29.695Z,26931.2
2022-08-10T09:49:48.633Z,26071.04
2022-08-10T09:50:42.998Z,25026.56
2022-08-10T09:51:46.220Z,24043.52
2022-08-10T09:52:30.208Z,23203.84
2022-08-10T09:53:30.305Z,22855.68
2022-08-10T09:54:30.452Z,22896.64
2022-08-10T09:56:16.585Z,22835.2
2022-08-10T09:56:30.709Z,22691.84
2022-08-10T09:57:43.682Z,22650.88
2022-08-10T09:58:30.961Z,22466.56
2022-08-10T09:59:59.774Z,22179.84
2022-08-10T10:00:31.216Z,21831.68
2022-08-10T10:01:56.429Z,21237.76
2022-08-10T10:02:31.520Z,20746.24
2022-08-10T10:03:31.691Z,20152.32
2022-08-10T10:04:31.774Z,19445.76
2022-08-10T10:05:31.881Z,18872.32
2022-08-10T10:06:32.031Z,18329.6
2022-08-10T10:07:32.136Z,17868.8
2022-08-10T10:08:32.286Z,17530.88
2022-08-10T10:09:32.387Z,17346.56
2022-08-10T10:10:32.485Z,17162.24
2022-08-10T10:11:32.587Z,16967.68
2022-08-10T10:12:32.747Z,16660.48
2022-08-10T10:13:41.918Z,16353.279
2022-08-10T10:14:32.997Z,15964.159
2022-08-10T10:15:33.094Z,15667.199
2022-08-10T10:16:33.247Z,15431.68
2022-08-10T10:17:33.426Z,15278.08
2022-08-10T10:18:33.453Z,15196.159
2022-08-10T10:19:36.136Z,15104
2022-08-10T10:20:33.655Z,14960.64
2022-08-10T10:21:51.429Z,14868.479
2022-08-10T10:22:33.910Z,14766.08
2022-08-10T10:23:34.014Z,14735.359
2022-08-10T10:24:34.225Z,14745.6
2022-08-10T10:25:50.473Z,14776.319
2022-08-10T10:26:34.417Z,14827.52
2022-08-10T10:27:34.518Z,15032.319
2022-08-10T10:29:07.277Z,15360
2022-08-10T10:29:56.143Z,15810.56
2022-08-10T10:30:34.922Z,16363.52
2022-08-10T10:31:35.043Z,17008.64
2022-08-10T10:32:36.808Z,17797.12
2022-08-10T10:33:35.293Z,18647.04
2022-08-10T10:34:35.328Z,19292.16
2022-08-10T10:35:35.491Z,20152.32
2022-08-10T10:36:35.582Z,20817.92
2022-08-10T10:38:02.353Z,21442.56
2022-08-10T10:38:35.899Z,22548.48
2022-08-10T10:39:36.047Z,23080.96
2022-08-10T10:40:36.096Z,23838.72
2022-08-10T10:41:56.414Z,24657.92
2022-08-10T10:42:45.452Z,27791.36
2022-08-10T10:43:36.549Z,31191.04
2022-08-10T10:44:40.284Z,27197.44
2022-08-10T10:45:40.369Z,25559.04
2022-08-10T10:46:36.956Z,24473.6
2022-08-10T10:47:37.263Z,24104.96
2022-08-10T10:48:37.208Z,23920.64
2022-08-10T10:49:37.312Z,24227.84
2022-08-10T10:50:37.410Z,26521.6
2022-08-10T10:51:37.564Z,62504.96
2022-08-10T10:52:37.718Z,89374.72
2022-08-10T10:53:37.868Z,90112
2022-08-10T10:54:37.979Z,89047.04
2022-08-10T10:56:13.196Z,91996.16
2022-08-10T10:56:38.279Z,47267.84
2022-08-10T10:57:59.693Z,59514.88
2022-08-10T10:58:38.528Z,48209.92
2022-08-10T10:59:54.809Z,55377.92
2022-08-10T11:00:38.786Z,88145.92
2022-08-10T11:01:38.969Z,35368.96
2022-08-10T11:02:39.032Z,31948.8
2022-08-10T11:03:39.142Z,30146.56
2022-08-10T11:04:39.288Z,29102.08
2022-08-10T11:05:39.391Z,28569.6
2022-08-10T11:06:40.686Z,28057.6
2022-08-10T11:07:39.649Z,27545.6
2022-08-10T11:08:39.755Z,26992.64
2022-08-10T11:10:04.135Z,26624
2022-08-10T11:10:46.956Z,26357.76
2022-08-10T11:12:01.046Z,26337.28
2022-08-10T11:12:40.702Z,26460.16
2022-08-10T11:14:23.610Z,26234.88
2022-08-10T11:14:40.617Z,25600
2022-08-10T11:15:42.645Z,24883.2
2022-08-10T11:16:40.813Z,24023.04
2022-08-10T11:17:40.914Z,23715.84
2022-08-10T11:18:41.065Z,23695.36
2022-08-10T11:20:00.081Z,23838.72
2022-08-10T11:20:41.575Z,24084.48
2022-08-10T11:21:41.426Z,24555.52
2022-08-10T11:22:41.546Z,25006.08
2022-08-10T11:23:41.645Z,25354.24
2022-08-10T11:24:43.312Z,25763.84
2022-08-10T11:25:41.882Z,26173.44
2022-08-10T11:26:42.032Z,26460.16
2022-08-10T11:27:42.135Z,26562.56
2022-08-10T11:28:42.235Z,27197.44
2022-08-10T11:29:45.729Z,31457.28
2022-08-10T11:30:42.487Z,27176.96
2022-08-10T11:31:42.641Z,26951.68
2022-08-10T11:32:42.748Z,26992.64
2022-08-10T11:33:57.339Z,26910.72
2022-08-10T11:34:48.079Z,26931.2
2022-08-10T11:35:43.150Z,26890.24
2022-08-10T11:36:43.248Z,27217.92
2022-08-10T11:38:28.844Z,27955.2
2022-08-10T11:39:10.897Z,28856.32
2022-08-10T11:39:48.505Z,29777.92
2022-08-10T11:40:43.795Z,30351.36
2022-08-10T11:42:05.970Z,30597.12
2022-08-10T11:42:44.065Z,30658.56
2022-08-10T11:43:44.167Z,30945.28
2022-08-10T11:44:44.267Z,31703.04
2022-08-10T11:45:51.626Z,33157.12
2022-08-10T11:46:44.521Z,35225.6
2022-08-10T11:47:44.627Z,37560.32
2022-08-10T11:48:52.597Z,37990.4
2022-08-10T11:49:44.930Z,37642.24
2022-08-10T11:50:45.076Z,36638.72
2022-08-10T11:51:45.177Z,35819.52
2022-08-10T11:52:45.284Z,35573.76
2022-08-10T11:53:45.433Z,36495.36
2022-08-10T11:54:45.535Z,40468.48
2022-08-10T11:55:45.715Z,54435.84
2022-08-10T11:56:45.838Z,63160.32
2022-08-10T11:57:53.602Z,56197.12
2022-08-10T11:58:46.096Z,45670.4
2022-08-10T11:59:46.244Z,42434.56
2022-08-10T12:00:46.404Z,51077.12
2022-08-10T12:01:46.552Z,90931.2
2022-08-10T12:02:46.805Z,47759.36
2022-08-10T12:03:46.857Z,56197.12
2022-08-10T12:04:47.002Z,79216.64
2022-08-10T12:05:52.508Z,43048.96
2022-08-10T12:06:55.456Z,42967.04
2022-08-10T12:08:55.167Z,38973.44
2022-08-10T12:10:47.765Z,37068.8
2022-08-10T12:11:47.913Z,38932.48
2022-08-10T12:12:48.015Z,39321.6
2022-08-10T12:14:04.572Z,37560.32
2022-08-10T12:14:48.219Z,38830.08
2022-08-10T12:15:48.376Z,41041.92
2022-08-10T12:16:48.484Z,38891.52
2022-08-10T12:17:48.578Z,39075.84
2022-08-10T12:18:48.733Z,40202.24
2022-08-10T12:19:59.997Z,46407.68
2022-08-10T12:20:48.990Z,85442.55
2022-08-10T12:21:49.138Z,110837.76
2022-08-10T12:22:49.290Z,86425.6
2022-08-10T12:23:49.392Z,73809.92
2022-08-10T12:24:49.496Z,54476.8
2022-08-10T12:25:57.266Z,81059.84
2022-08-10T12:26:49.748Z,56934.4
2022-08-10T12:27:49.847Z,69345.28
2022-08-10T12:28:51.836Z,77946.88
2022-08-10T12:29:50.107Z,41328.64
2022-08-10T12:30:50.251Z,38891.52
2022-08-10T12:31:50.358Z,38420.48
2022-08-10T12:32:50.507Z,39485.44
2022-08-10T12:34:01.721Z,37621.76
2022-08-10T12:34:51.045Z,36474.88
2022-08-10T12:36:08.235Z,36085.76
2022-08-10T12:36:51.066Z,36720.64
2022-08-10T12:37:51.302Z,36864
2022-08-10T12:38:51.270Z,36638.72
2022-08-10T12:39:51.472Z,38195.2
2022-08-10T12:40:51.575Z,63078.4
2022-08-10T12:41:51.677Z,122716.16
2022-08-10T12:43:01.583Z,100433.91